OISF  Fasa  Airport

Fasa, Iran

Add Bookmark
ICAO OISF
IATA FAZ
Type Airport
Status Operational
Latitude
28° 53' 30" N
28.891800
Longitude
53° 43' 23" E
53.723301
Local (GMT +4.5 ) UTC
Aug 25, 2016 02:07 pm Aug 25, 2016 09:37
Sunrise-Sunset Local UTC
Begin Civil Twilight 06:04 am 01:34
Sunrise 06:28 am 01:58
Sunset 07:25 pm 14:55
End Civil Twilight 07:49 pm 15:19
VFR
VFR
MVFR
MVFR
IFR
IFR
LIFR
LIFR
Unknown
Unavailable

Current Weather

METAR Observed VFR
OISF 250900Z 35012KT CAVOK 35/M06 Q1013 Thu, Aug 25, 2016 @ 09:00 UTC
(37 Minutes ago)
Visual Flight Rules
Wind Visibility Conditions
350° at 12 knots (22 kph) 10 km or more
  • No significant weather
Temperatures Readings Precipitation
Current Temp
35°C
95°F
Dewpoint
-6°C
21°F
Humidity 7%
Altimeter 29.91" Hg
Sea Level Pressure 1,013 mb
Field Elevation
1,383 m
4,537 ft
None Recorded
-
-

CheckWX.com is intended as a tool to help pilots better visualize weather data. It is not intended as a substitute for an official weather briefing obtained from a Flight Service Station. CheckWX.com does not meet the FAA requirements for an official pre-flight weather briefing. Therefore, it's important that pilots still call and obtain an official FSS pre-flight weather briefing.

© 2007-2016 CheckWX.com
09:37:28 UTC